Time;durP1;ratioP1;P1;durP2;ratioP2;P2;SDS_P1;SDS_P2;PMS_P1;PMS_P2;Temp;Humidity;BMP_temperature;BMP_pressure;BME280_temperature;BME280_humidity;BME280_pressure;Samples;Min_cycle;Max_cycle;Signal;HPM_P1;HPM_P2
2022/04/17 00:01:13;;;;;;;3.10;2.10;;;19.10;39.00;18.20;102784.00;;;;6211350;23;20027;-63
2022/04/17 00:03:59;;;;;;;4.05;2.30;;;19.10;38.90;18.20;102784.00;;;;6208521;23;20439;-63
2022/04/17 00:06:45;;;;;;;2.88;1.92;;;19.10;39.00;18.20;102777.00;;;;6209344;23;20025;-64
2022/04/17 00:09:32;;;;;;;2.65;1.60;;;19.10;39.00;18.20;102778.00;;;;6210837;23;20486;-64
2022/04/17 00:12:18;;;;;;;3.93;1.90;;;19.10;38.90;18.20;102772.00;;;;6210518;23;20047;-63
2022/04/17 00:15:06;;;;;;;3.30;2.05;;;19.10;39.00;18.20;102782.00;;;;6210253;23;20343;-63
2022/04/17 00:17:52;;;;;;;3.07;2.00;;;19.10;39.00;18.20;102773.00;;;;6211905;23;20044;-64
2022/04/17 00:20:38;;;;;;;3.38;2.25;;;19.10;39.00;18.20;102785.00;;;;6210007;23;20247;-64
2022/04/17 00:23:24;;;;;;;3.50;2.05;;;19.10;39.10;18.20;102777.00;;;;6207971;23;20343;-64
2022/04/17 00:26:10;;;;;;;2.55;2.05;;;19.10;39.10;18.20;102776.00;;;;6210231;23;20438;-64
2022/04/17 00:28:58;;;;;;;4.75;2.33;;;19.10;39.10;18.20;102777.00;;;;6210803;23;20019;-64
2022/04/17 00:31:44;;;;;;;3.10;2.08;;;19.10;39.10;18.10;102781.00;;;;6211054;23;20335;-64
2022/04/17 00:34:30;;;;;;;3.58;2.03;;;19.10;39.10;18.20;102777.00;;;;6210605;23;20012;-64
2022/04/17 00:37:16;;;;;;;3.92;2.00;;;19.10;39.10;18.10;102768.00;;;;6210327;23;20029;-64
2022/04/17 00:40:05;;;;;;;3.28;2.40;;;19.10;39.10;18.10;102772.00;;;;6210113;23;20630;-63
2022/04/17 00:42:53;;;;;;;4.25;2.22;;;19.10;39.10;18.10;102772.00;;;;6208903;23;20503;-64
2022/04/17 00:45:39;;;;;;;3.17;2.40;;;19.10;39.10;18.10;102764.00;;;;6210142;23;20067;-63
2022/04/17 00:48:25;;;;;;;2.70;2.20;;;19.10;39.10;18.10;102766.00;;;;6210203;23;20020;-64
2022/04/17 00:51:11;;;;;;;3.55;2.13;;;19.10;39.10;18.10;102764.00;;;;6189720;23;20016;-64
2022/04/17 00:53:58;;;;;;;4.85;2.60;;;19.00;39.10;18.10;102774.00;;;;6210045;23;20055;-63
2022/04/17 00:56:44;;;;;;;2.90;2.17;;;19.00;39.10;18.10;102757.00;;;;6209875;23;20016;-64
2022/04/17 00:59:30;;;;;;;3.22;2.17;;;19.00;39.10;18.10;102762.00;;;;6209260;23;20016;-64
2022/04/17 01:02:16;;;;;;;2.90;2.28;;;19.00;39.10;18.10;102759.00;;;;6209361;23;20048;-64
2022/04/17 01:05:03;;;;;;;3.20;2.20;;;19.00;39.10;18.10;102757.00;;;;6208091;23;20023;-64
2022/04/17 01:07:49;;;;;;;2.60;1.90;;;19.00;39.10;18.10;102756.00;;;;6212018;23;20020;-64
2022/04/17 01:10:36;;;;;;;3.63;2.47;;;19.10;39.10;18.10;102747.00;;;;6187209;23;20657;-64
2022/04/17 01:13:22;;;;;;;4.88;2.63;;;19.00;39.00;18.10;102751.00;;;;6157849;23;20028;-64
2022/04/17 01:16:08;;;;;;;4.43;2.67;;;18.90;38.90;18.10;102747.00;;;;6158468;23;20024;-64
2022/04/17 01:19:12;;;;;;;4.13;2.42;;;19.00;39.00;18.10;102757.00;;;;6180656;23;20017;-63
2022/04/17 01:21:58;;;;;;;2.97;2.22;;;19.00;39.00;18.10;102764.00;;;;6157671;23;20017;-63
2022/04/17 01:27:49;;;;;;;3.25;2.28;;;19.10;39.10;18.10;102752.00;;;;6182641;23;20044;-64
2022/04/17 01:30:39;;;;;;;3.85;2.22;;;18.90;39.00;18.00;102745.00;;;;6158629;23;20229;-64
2022/04/17 01:33:25;;;;;;;6.53;2.30;;;18.90;39.00;18.00;102751.00;;;;6159663;23;20013;-63
2022/04/17 01:36:11;;;;;;;4.65;2.63;;;19.00;39.10;18.00;102741.00;;;;6180586;23;20017;-64
2022/04/17 01:38:58;;;;;;;3.75;2.50;;;18.90;39.80;18.00;102753.00;;;;6179793;23;20028;-63
2022/04/17 01:41:44;;;;;;;4.65;2.50;;;18.90;39.10;18.00;102741.00;;;;6180561;23;20466;-64
2022/04/17 01:44:30;;;;;;;3.55;2.30;;;18.90;39.10;18.00;102739.00;;;;6158309;23;20031;-64
2022/04/17 01:47:16;;;;;;;4.97;2.60;;;18.90;39.10;18.00;102744.00;;;;6179744;23;20076;-64
2022/04/17 01:50:03;;;;;;;5.10;2.78;;;18.90;39.10;18.00;102733.00;;;;6179653;23;20017;-64
2022/04/17 01:52:49;;;;;;;4.70;2.72;;;18.90;39.10;18.00;102737.00;;;;6180247;23;20017;-64
2022/04/17 01:55:35;;;;;;;4.50;2.60;;;18.90;39.10;18.00;102725.00;;;;6181613;23;20017;-63
2022/04/17 01:58:21;;;;;;;3.63;2.55;;;18.80;39.10;18.00;102727.00;;;;6182825;23;20043;-64
2022/04/17 02:01:07;;;;;;;2.95;2.30;;;18.90;39.20;18.00;102729.00;;;;6181015;23;20036;-63
2022/04/17 02:03:53;;;;;;;4.63;2.75;;;18.80;39.10;18.00;102731.00;;;;6182657;23;20099;-64
2022/04/17 02:06:39;;;;;;;3.13;2.60;;;18.90;39.20;18.00;102723.00;;;;6160777;23;20028;-64
2022/04/17 02:09:26;;;;;;;4.32;2.53;;;18.90;39.20;18.00;102727.00;;;;6160243;23;20132;-64
2022/04/17 02:12:12;;;;;;;3.63;2.25;;;18.90;39.20;18.00;102725.00;;;;6200944;23;20017;-63
2022/04/17 02:14:58;;;;;;;3.70;2.50;;;18.90;39.20;18.00;102723.00;;;;6210563;23;20013;-64
2022/04/17 02:17:44;;;;;;;5.90;2.85;;;18.90;39.20;18.00;102717.00;;;;6212501;23;20020;-64
2022/04/17 02:20:30;;;;;;;4.38;2.78;;;18.90;39.30;18.00;102719.00;;;;6211408;23;20020;-64
2022/04/17 02:23:16;;;;;;;4.22;2.88;;;18.80;39.20;17.90;102719.00;;;;6212540;23;20024;-64
2022/04/17 02:26:02;;;;;;;4.45;2.75;;;18.80;39.30;18.00;102730.00;;;;6212236;23;20447;-64
2022/04/17 02:28:49;;;;;;;2.92;2.40;;;18.80;39.20;17.90;102720.00;;;;6211167;23;20092;-64
2022/04/17 02:31:35;;;;;;;4.63;2.65;;;18.80;39.30;17.90;102708.00;;;;6213445;23;20087;-64
2022/04/17 02:34:21;;;;;;;5.07;2.88;;;18.70;39.20;17.90;102709.00;;;;6212358;23;20391;-63
2022/04/17 02:37:07;;;;;;;3.55;2.20;;;18.70;39.30;17.90;102703.00;;;;6212385;23;20095;-64
2022/04/17 02:39:53;;;;;;;4.97;2.70;;;18.90;39.40;17.90;102710.00;;;;6211340;23;20349;-64
2022/04/17 02:42:39;;;;;;;3.92;2.65;;;18.80;39.30;17.90;102697.00;;;;6211931;23;20070;-63
2022/04/17 02:45:27;;;;;;;3.78;2.60;;;18.80;39.30;17.90;102705.00;;;;6210637;23;20470;-64
2022/04/17 02:48:13;;;;;;;4.00;2.53;;;18.80;39.30;17.90;102710.00;;;;6213267;23;20411;-64
2022/04/17 02:51:00;;;;;;;3.83;2.63;;;18.80;39.30;17.90;102701.00;;;;6211713;23;20016;-63
2022/04/17 02:53:46;;;;;;;3.90;2.55;;;18.80;39.30;17.90;102697.00;;;;6211796;23;20028;-63
2022/04/17 02:56:32;;;;;;;4.72;2.60;;;18.70;39.30;17.90;102698.00;;;;6211923;23;20355;-64
2022/04/17 02:59:18;;;;;;;3.80;2.78;;;18.70;39.30;17.90;102701.00;;;;6212432;23;20087;-63
2022/04/17 03:08:15;;;;;;;5.95;3.10;;;18.70;39.30;17.80;102685.00;;;;6210928;23;20025;-63
2022/04/17 03:11:01;;;;;;;4.93;2.60;;;18.70;39.30;17.80;102676.00;;;;6208649;23;20017;-63
2022/04/17 03:13:48;;;;;;;6.32;3.38;;;18.70;39.30;17.80;102675.00;;;;6211122;23;20385;-63
2022/04/17 03:16:34;;;;;;;4.05;2.85;;;18.70;39.20;17.80;102684.00;;;;6211671;23;20017;-64
2022/04/17 03:19:20;;;;;;;4.53;2.80;;;18.70;39.20;17.80;102678.00;;;;6211479;23;20031;-63
2022/04/17 03:22:07;;;;;;;5.18;2.58;;;18.70;39.20;17.80;102675.00;;;;6211679;23;20068;-63
2022/04/17 03:24:53;;;;;;;4.63;2.75;;;18.70;39.20;17.80;102678.00;;;;6188303;23;20111;-63
2022/04/17 03:27:40;;;;;;;3.60;2.63;;;18.70;39.20;17.80;102675.00;;;;6211593;23;20453;-64
2022/04/17 03:30:26;;;;;;;3.92;2.70;;;18.70;39.20;17.80;102675.00;;;;6210608;23;20031;-63
2022/04/17 03:33:12;;;;;;;4.35;2.88;;;18.70;39.20;17.80;102668.00;;;;6211806;23;20016;-64
2022/04/17 03:35:58;;;;;;;3.95;2.55;;;18.70;39.90;17.80;102669.00;;;;6211062;23;20558;-63
2022/04/17 03:38:44;;;;;;;3.38;2.58;;;18.70;39.20;17.80;102670.00;;;;6211152;23;20023;-63
2022/04/17 03:41:30;;;;;;;4.07;2.80;;;18.70;39.30;17.80;102668.00;;;;6211441;23;20092;-63
2022/04/17 03:44:17;;;;;;;4.78;2.70;;;18.70;39.30;17.80;102671.00;;;;6210822;23;20012;-64
2022/04/17 03:47:05;;;;;;;5.53;3.08;;;18.70;39.30;17.80;102671.00;;;;6210762;23;20020;-63
2022/04/17 03:49:51;;;;;;;5.15;2.70;;;18.60;39.30;17.80;102668.00;;;;6210669;23;20435;-64
2022/04/17 03:52:48;;;;;;;3.83;2.90;;;18.60;39.30;17.80;102658.00;;;;6211888;23;20013;-64
2022/04/17 03:55:35;;;;;;;4.22;2.70;;;18.70;39.30;17.80;102667.00;;;;6208678;23;20022;-63
2022/04/17 03:58:21;;;;;;;4.53;2.80;;;18.60;39.30;17.80;102658.00;;;;6209857;23;20024;-63
2022/04/17 04:01:07;;;;;;;3.60;2.80;;;18.60;39.30;17.80;102665.00;;;;6209596;23;20036;-63
2022/04/17 04:03:54;;;;;;;5.85;3.00;;;18.60;39.30;17.70;102663.00;;;;6209714;23;20016;-64
2022/04/17 04:06:41;;;;;;;6.22;3.25;;;18.60;39.30;17.70;102666.00;;;;6211324;23;20021;-64
2022/04/17 04:09:27;;;;;;;3.70;2.67;;;18.70;39.40;17.70;102666.00;;;;6211908;23;20270;-64
2022/04/17 04:12:13;;;;;;;4.13;2.70;;;18.60;39.30;17.70;102659.00;;;;6210833;23;20017;-64
2022/04/17 04:14:59;;;;;;;5.07;3.05;;;18.60;39.30;17.70;102662.00;;;;6210455;23;20012;-63
2022/04/17 04:17:45;;;;;;;4.55;3.25;;;18.60;39.40;17.70;102667.00;;;;6210069;23;20055;-64
2022/04/17 04:20:31;;;;;;;5.85;3.58;;;18.60;39.30;17.70;102658.00;;;;6209992;23;20350;-64
2022/04/17 04:23:19;;;;;;;4.43;2.63;;;18.60;39.30;17.70;102656.00;;;;6210425;23;20336;-64
2022/04/17 04:26:05;;;;;;;4.28;3.13;;;18.60;39.30;17.70;102659.00;;;;6210002;23;20025;-64
2022/04/17 04:28:51;;;;;;;4.40;2.90;;;18.60;39.30;17.70;102660.00;;;;6208586;23;20024;-63
2022/04/17 04:31:38;;;;;;;4.47;3.03;;;18.60;39.20;17.70;102659.00;;;;6211369;23;20584;-64
2022/04/17 04:34:24;;;;;;;5.40;3.22;;;18.50;39.10;17.70;102658.00;;;;6210446;23;20082;-63
2022/04/17 04:37:10;;;;;;;4.25;2.75;;;18.60;39.20;17.70;102651.00;;;;6211313;23;20039;-64
2022/04/17 04:39:56;;;;;;;4.78;3.00;;;18.60;39.20;17.70;102647.00;;;;6210289;23;20035;-63
2022/04/17 04:42:43;;;;;;;5.35;3.08;;;18.60;39.20;17.70;102639.00;;;;6209267;23;20099;-63
2022/04/17 04:51:43;;;;;;;3.85;3.20;;;18.60;39.20;17.70;102644.00;;;;6209920;23;20023;-64
2022/04/17 04:54:33;;;;;;;3.72;2.75;;;18.60;39.30;17.70;102641.00;;;;6210312;23;20020;-64
2022/04/17 04:57:19;;;;;;;4.55;3.38;;;18.50;39.10;17.70;102640.00;;;;6211070;23;20017;-63
2022/04/17 05:00:06;;;;;;;5.00;3.40;;;18.50;39.20;17.70;102649.00;;;;6209945;23;20438;-63
2022/04/17 05:02:52;;;;;;;5.03;3.13;;;18.50;39.10;17.70;102650.00;;;;6209129;23;20021;-64
2022/04/17 05:05:38;;;;;;;5.00;2.97;;;18.50;39.10;17.70;102653.00;;;;6210062;23;20038;-63
2022/04/17 05:08:24;;;;;;;5.60;3.13;;;18.50;39.20;17.70;102665.00;;;;6208707;23;20029;-63
2022/04/17 05:11:10;;;;;;;4.03;3.35;;;18.50;39.10;17.60;102650.00;;;;6210047;23;20320;-63
2022/04/17 05:13:56;;;;;;;4.20;3.28;;;18.50;39.10;17.60;102654.00;;;;6210135;23;20501;-63
2022/04/17 05:16:43;;;;;;;4.57;3.20;;;18.50;39.20;17.70;102655.00;;;;6211107;23;20023;-63
2022/04/17 05:19:29;;;;;;;4.45;3.50;;;18.50;39.20;17.70;102654.00;;;;6210131;23;20051;-63
2022/04/17 05:22:17;;;;;;;4.18;2.90;;;18.40;39.80;17.60;102650.00;;;;6211014;23;20016;-64
2022/04/17 05:25:04;;;;;;;4.28;2.97;;;18.50;39.20;17.60;102655.00;;;;6210261;23;20079;-63
2022/04/17 05:27:50;;;;;;;5.20;3.60;;;18.50;39.10;17.60;102648.00;;;;6212636;23;20395;-63
2022/04/17 05:30:36;;;;;;;4.50;3.30;;;18.50;39.10;17.60;102650.00;;;;6211565;23;20016;-63
2022/04/17 05:33:22;;;;;;;5.78;3.67;;;18.50;39.10;17.60;102654.00;;;;6212088;23;20419;-63
2022/04/17 05:36:08;;;;;;;4.93;3.15;;;18.50;39.10;17.60;102651.00;;;;6211815;23;20016;-64
2022/04/17 05:38:55;;;;;;;6.13;3.38;;;18.50;39.20;17.60;102652.00;;;;6212478;23;20013;-63
2022/04/17 05:41:41;;;;;;;5.68;3.60;;;18.50;39.10;17.60;102657.00;;;;6212009;23;20091;-63
2022/04/17 05:44:27;;;;;;;5.18;3.50;;;18.50;39.10;17.60;102656.00;;;;6210069;23;20066;-64
2022/04/17 05:47:14;;;;;;;4.28;3.03;;;18.50;39.10;17.60;102658.00;;;;6170872;23;20020;-63
2022/04/17 05:50:00;;;;;;;6.50;3.58;;;18.50;39.10;17.60;102650.00;;;;6211133;23;20091;-63
2022/04/17 05:52:47;;;;;;;5.35;3.53;;;18.50;39.20;17.60;102660.00;;;;6212993;23;20016;-63
2022/04/17 05:55:34;;;;;;;4.97;3.20;;;18.50;39.20;17.60;102656.00;;;;6190680;23;20024;-64
2022/04/17 05:58:20;;;;;;;4.68;3.22;;;18.50;39.10;17.60;102654.00;;;;6208108;23;20024;-64
2022/04/17 06:01:06;;;;;;;5.60;3.30;;;18.50;39.20;17.60;102655.00;;;;6209798;23;20099;-63
2022/04/17 06:03:52;;;;;;;4.28;3.33;;;18.50;39.10;17.60;102656.00;;;;6209390;23;20112;-63
2022/04/17 06:06:38;;;;;;;5.03;3.45;;;18.50;39.10;17.60;102658.00;;;;6209342;23;20020;-64
2022/04/17 06:09:24;;;;;;;4.32;2.83;;;18.50;39.10;17.60;102656.00;;;;6209341;23;20016;-64
2022/04/17 06:12:11;;;;;;;7.97;3.30;;;18.50;39.10;17.60;102657.00;;;;6209547;23;20397;-64
2022/04/17 06:14:57;;;;;;;4.38;2.92;;;18.50;39.10;17.60;102658.00;;;;6209227;23;20039;-64
2022/04/17 06:17:43;;;;;;;5.10;3.33;;;18.50;39.00;17.60;102657.00;;;;6189136;23;20436;-63
2022/04/17 06:20:29;;;;;;;3.67;2.83;;;18.50;39.00;17.60;102669.00;;;;6206472;23;20521;-63
2022/04/17 06:23:16;;;;;;;5.60;3.53;;;18.50;39.10;17.60;102670.00;;;;6204966;23;20020;-64
2022/04/17 06:26:02;;;;;;;5.25;3.22;;;18.50;39.00;17.60;102672.00;;;;6208245;23;20027;-64
2022/04/17 06:28:48;;;;;;;5.32;3.30;;;18.50;39.00;17.60;102669.00;;;;6208577;23;20028;-63
2022/04/17 06:31:34;;;;;;;5.30;2.85;;;18.50;39.10;17.60;102664.00;;;;6207273;23;20067;-63
2022/04/17 06:34:20;;;;;;;4.80;2.90;;;18.60;39.10;17.60;102658.00;;;;6166352;23;20446;-64
2022/04/17 06:37:06;;;;;;;5.28;2.97;;;18.50;39.00;17.60;102664.00;;;;6207687;23;20330;-63
2022/04/17 06:39:52;;;;;;;4.03;2.60;;;18.60;39.00;17.60;102654.00;;;;6207659;23;20051;-63
2022/04/17 06:42:38;;;;;;;4.60;3.00;;;18.50;39.00;17.70;102648.00;;;;6207777;23;20086;-63
2022/04/17 06:45:25;;;;;;;4.97;2.95;;;18.60;39.00;17.70;102641.00;;;;6208793;23;20294;-63
2022/04/17 06:48:19;;;;;;;4.53;2.92;;;18.60;39.00;17.70;102647.00;;;;6208541;23;20104;-63
2022/04/17 06:51:05;;;;;;;4.63;3.17;;;18.60;39.00;17.60;102644.00;;;;6205608;23;20020;-63
2022/04/17 06:53:52;;;;;;;5.07;2.97;;;18.60;38.90;17.70;102627.00;;;;6208985;23;20016;-63
2022/04/17 06:56:38;;;;;;;4.35;3.03;;;18.60;39.10;17.70;102638.00;;;;6208766;23;20054;-63
2022/04/17 06:59:24;;;;;;;4.78;2.85;;;18.60;39.00;17.60;102630.00;;;;6206934;23;20021;-63
2022/04/17 07:02:10;;;;;;;5.07;3.10;;;18.60;39.00;17.70;102640.00;;;;6207258;23;20451;-63
2022/04/17 07:04:56;;;;;;;4.47;2.40;;;18.60;39.10;17.70;102630.00;;;;6207657;23;20024;-64
2022/04/17 07:07:42;;;;;;;3.53;2.65;;;18.60;39.10;17.70;102635.00;;;;6204040;23;20016;-63
2022/04/17 07:10:31;;;;;;;4.55;3.00;;;18.50;39.00;17.70;102634.00;;;;6205266;23;20107;-64
2022/04/17 07:13:19;;;;;;;3.78;3.00;;;18.60;39.00;17.70;102634.00;;;;6205169;23;20016;-63
2022/04/17 07:16:06;;;;;;;4.50;2.80;;;18.60;39.00;17.70;102635.00;;;;6209096;23;20020;-63
2022/04/17 07:18:53;;;;;;;4.80;2.65;;;18.60;39.00;17.70;102635.00;;;;6208490;23;20391;-64
2022/04/17 07:21:39;;;;;;;5.05;3.20;;;18.60;39.00;17.70;102643.00;;;;6206443;23;20024;-63
2022/04/17 07:24:26;;;;;;;4.20;3.08;;;18.60;39.00;17.70;102646.00;;;;6207947;23;20103;-64
2022/04/17 07:27:16;;;;;;;4.28;2.75;;;18.60;39.00;17.70;102635.00;;;;6208400;23;20016;-63
2022/04/17 07:30:13;;;;;;;3.58;2.60;;;18.60;39.00;17.70;102634.00;;;;6207001;23;20016;-63
2022/04/17 07:33:00;;;;;;;4.57;2.97;;;18.60;39.00;17.70;102631.00;;;;6206466;23;20048;-63
2022/04/17 07:35:46;;;;;;;4.68;2.67;;;18.60;39.00;17.70;102630.00;;;;6205064;23;20475;-63
2022/04/17 07:38:32;;;;;;;4.30;2.80;;;18.60;39.00;17.70;102630.00;;;;6207540;23;20020;-64
2022/04/17 07:41:18;;;;;;;4.25;2.50;;;18.60;38.90;17.70;102626.00;;;;6208492;23;20079;-63
2022/04/17 07:44:05;;;;;;;4.70;3.05;;;18.60;38.90;17.70;102632.00;;;;6208395;23;20021;-63
2022/04/17 07:46:51;;;;;;;5.38;2.60;;;18.60;38.90;17.70;102627.00;;;;6206566;23;20024;-63
2022/04/17 07:49:37;;;;;;;5.63;3.17;;;18.70;39.00;17.70;102622.00;;;;6207416;23;20394;-64
2022/04/17 07:52:23;;;;;;;6.32;3.28;;;18.70;39.00;17.70;102629.00;;;;6207024;23;20027;-63
2022/04/17 07:55:11;;;;;;;5.60;3.20;;;18.70;39.00;17.70;102628.00;;;;6206769;23;20024;-63
2022/04/17 08:00:59;;;;;;;6.15;4.28;;;18.70;38.70;17.60;102625.00;;;;6204685;23;20331;-63
2022/04/17 08:06:31;;;;;;;8.00;4.10;;;18.70;38.60;17.60;102620.00;;;;6206616;23;20350;-64
2022/04/17 08:09:17;;;;;;;7.80;4.15;;;18.60;38.60;17.60;102617.00;;;;6206308;23;20043;-63
2022/04/17 08:12:04;;;;;;;7.20;4.50;;;18.70;38.80;17.60;102611.00;;;;6205745;23;20016;-63
2022/04/17 08:14:50;;;;;;;6.20;4.10;;;18.60;38.70;17.60;102617.00;;;;6201657;23;20016;-64
2022/04/17 08:17:36;;;;;;;8.25;4.22;;;18.60;38.90;17.60;102614.00;;;;6206653;23;20208;-63
2022/04/17 08:20:22;;;;;;;6.85;3.65;;;18.60;38.70;17.60;102609.00;;;;6205325;23;20207;-63
2022/04/17 08:23:08;;;;;;;5.18;3.65;;;18.60;38.80;17.60;102611.00;;;;6208376;23;20031;-63
2022/04/17 08:25:54;;;;;;;4.78;3.55;;;18.60;38.60;17.60;102616.00;;;;6198672;23;20733;-63
2022/04/17 08:28:40;;;;;;;5.70;3.45;;;18.60;38.70;17.60;102616.00;;;;6204831;23;20596;-63
2022/04/17 08:31:26;;;;;;;6.55;3.35;;;18.60;38.90;17.60;102610.00;;;;6206612;23;20039;-63
2022/04/17 08:34:12;;;;;;;3.92;3.30;;;18.60;38.80;17.60;102610.00;;;;6206332;23;20322;-63
2022/04/17 08:36:59;;;;;;;5.07;3.00;;;18.60;38.90;17.60;102614.00;;;;6204840;23;20469;-64
2022/04/17 08:39:45;;;;;;;7.82;3.58;;;18.60;38.90;17.60;102616.00;;;;6202885;23;20025;-63
2022/04/17 08:42:32;;;;;;;5.25;3.42;;;18.60;38.90;17.60;102615.00;;;;6203217;23;20017;-64
2022/04/17 08:45:18;;;;;;;6.53;2.95;;;18.60;38.80;17.60;102602.00;;;;6207629;23;20398;-64
2022/04/17 08:48:05;;;;;;;4.70;3.20;;;18.60;38.90;17.60;102599.00;;;;6204238;23;20480;-63
2022/04/17 08:50:54;;;;;;;4.95;2.85;;;18.60;38.90;17.60;102596.00;;;;6201193;23;20389;-63
2022/04/17 08:53:40;;;;;;;3.70;2.70;;;18.60;39.00;17.60;102592.00;;;;6202882;23;20098;-63
2022/04/17 08:56:26;;;;;;;5.18;2.90;;;18.60;38.90;17.60;102592.00;;;;6165034;23;20021;-64
2022/04/17 08:59:13;;;;;;;5.45;3.00;;;18.60;38.90;17.60;102584.00;;;;6205253;23;20020;-63
2022/04/17 09:02:12;;;;;;;4.37;2.67;;;18.60;39.10;17.60;102578.00;;;;6207718;23;20020;-63
2022/04/17 09:04:59;;;;;;;5.85;2.88;;;18.60;38.30;17.60;102581.00;;;;6205089;23;20021;-64
2022/04/17 09:07:54;;;;;;;3.28;2.60;;;18.60;38.90;17.60;102575.00;;;;6164347;23;20021;-64
2022/04/17 09:10:40;;;;;;;4.05;2.70;;;18.60;38.90;17.60;102571.00;;;;6205943;23;20209;-63
2022/04/17 09:13:33;;;;;;;3.58;2.35;;;18.60;39.00;17.60;102573.00;;;;6205657;23;20086;-64
2022/04/17 09:16:31;;;;;;;3.72;2.50;;;18.60;39.00;17.60;102568.00;;;;6206193;23;20021;-63
2022/04/17 09:19:18;;;;;;;3.03;2.35;;;18.60;38.90;17.60;102557.00;;;;6183326;23;20473;-63
2022/04/17 09:22:09;;;;;;;4.65;2.70;;;18.60;39.00;17.60;102555.00;;;;6202914;23;20470;-63
2022/04/17 09:24:55;;;;;;;3.55;2.50;;;18.60;39.00;17.70;102546.00;;;;6204703;23;20063;-63
2022/04/17 09:27:59;;;;;;;3.53;2.20;;;18.60;39.00;17.60;102552.00;;;;6164278;23;20351;-63
2022/04/17 09:30:47;;;;;;;6.03;2.50;;;18.60;39.00;17.70;102553.00;;;;6205130;23;20472;-64
2022/04/17 09:33:37;;;;;;;2.53;2.20;;;18.50;39.00;17.70;102542.00;;;;6206588;23;20044;-64
2022/04/17 09:36:31;;;;;;;5.22;2.40;;;18.60;39.00;17.70;102535.00;;;;6205393;23;20020;-63
2022/04/17 09:39:19;;;;;;;4.43;2.60;;;18.60;39.10;17.70;102534.00;;;;6187339;23;20020;-63
2022/04/17 09:42:06;;;;;;;4.03;2.10;;;18.60;39.10;17.70;102528.00;;;;6209167;23;20025;-64
2022/04/17 09:44:55;;;;;;;3.92;2.35;;;18.60;39.10;17.70;102516.00;;;;6209849;23;20381;-63
2022/04/17 09:47:41;;;;;;;2.97;2.17;;;18.60;39.10;17.70;102513.00;;;;6207045;23;20056;-64
2022/04/17 09:50:32;;;;;;;2.45;2.03;;;18.70;39.20;17.70;102519.00;;;;6167504;23;20012;-64
2022/04/17 09:53:36;;;;;;;3.42;2.15;;;18.60;39.10;17.70;102505.00;;;;6206999;23;20017;-63
2022/04/17 09:56:37;;;;;;;4.25;2.05;;;18.60;39.10;17.70;102512.00;;;;6208625;23;20066;-64
2022/04/17 09:59:23;;;;;;;3.88;2.10;;;18.60;39.10;17.70;102497.00;;;;6207638;23;20119;-64
2022/04/17 10:02:12;;;;;;;3.08;2.10;;;18.70;39.20;17.70;102500.00;;;;6208257;23;20020;-64
2022/04/17 10:05:03;;;;;;;3.17;1.85;;;18.70;39.20;17.70;102493.00;;;;6189139;23;20020;-64
2022/04/17 10:07:49;;;;;;;3.08;2.10;;;18.70;39.20;17.70;102490.00;;;;6211498;23;20021;-63
2022/04/17 10:10:35;;;;;;;3.00;1.70;;;18.70;39.20;17.70;102493.00;;;;6209302;23;20089;-64
2022/04/17 10:13:21;;;;;;;3.97;1.92;;;18.70;39.20;17.70;102489.00;;;;6188802;23;20016;-63
2022/04/17 10:16:09;;;;;;;2.58;1.65;;;18.70;39.20;17.70;102483.00;;;;6169670;23;20066;-64
2022/04/17 10:18:55;;;;;;;7.13;2.20;;;18.70;39.20;17.70;102488.00;;;;6190448;23;20084;-63
2022/04/17 10:21:41;;;;;;;2.95;1.90;;;18.70;39.20;17.70;102475.00;;;;6168335;23;20350;-64
2022/04/17 10:24:27;;;;;;;2.30;2.08;;;18.70;39.20;17.70;102469.00;;;;6210797;23;20338;-63
2022/04/17 10:27:14;;;;;;;2.67;1.80;;;18.70;39.20;17.70;102463.00;;;;6209977;23;20070;-64
2022/04/17 10:30:08;;;;;;;3.00;1.80;;;18.70;39.20;17.70;102451.00;;;;6187599;23;20461;-64
2022/04/17 10:33:29;;;;;;;2.40;1.70;;;18.70;39.10;17.70;102445.00;;;;6179818;23;20188;-63
2022/04/17 10:37:03;;;;;;;4.38;1.45;;;18.70;39.10;17.70;102444.00;;;;6205350;23;20016;-63
2022/04/17 10:39:51;;;;;;;2.17;1.65;;;18.70;39.00;17.70;102434.00;;;;6187899;23;20091;-63
2022/04/17 10:42:53;;;;;;;2.72;1.63;;;18.80;39.00;17.70;102430.00;;;;6165700;23;20017;-63
2022/04/17 10:46:12;;;;;;;3.13;1.73;;;18.80;39.10;17.70;102422.00;;;;6206086;23;20017;-63
2022/04/17 10:48:58;;;;;;;2.65;1.70;;;18.70;39.10;17.70;102429.00;;;;6205757;23;20099;-63
2022/04/17 10:51:57;;;;;;;3.50;1.45;;;18.80;39.00;17.70;102419.00;;;;6207831;23;20115;-64
2022/04/17 10:54:51;;;;;;;2.55;1.65;;;18.80;39.00;17.80;102419.00;;;;6205434;23;20282;-63
2022/04/17 10:57:48;;;;;;;2.70;1.83;;;18.80;39.00;17.80;102416.00;;;;6207876;23;20051;-64
2022/04/17 11:00:36;;;;;;;1.95;1.58;;;18.70;39.00;17.80;102411.00;;;;6206172;23;20505;-63
2022/04/17 11:03:23;;;;;;;2.65;1.90;;;18.80;39.00;17.80;102411.00;;;;6203642;23;20477;-63
2022/04/17 11:06:32;;;;;;;6.70;1.88;;;18.80;39.00;17.80;102413.00;;;;6203289;23;20490;-64
2022/04/17 11:09:23;;;;;;;4.13;1.73;;;18.80;39.00;17.80;102403.00;;;;6208997;23;20020;-64
2022/04/17 11:12:19;;;;;;;3.42;1.75;;;18.80;38.50;17.80;102398.00;;;;6206395;23;20095;-63
2022/04/17 11:15:05;;;;;;;3.80;1.70;;;18.90;39.00;17.80;102388.00;;;;6208265;23;20027;-64
2022/04/17 11:17:51;;;;;;;2.47;1.52;;;18.80;38.90;17.80;102391.00;;;;6208367;23;20027;-64
2022/04/17 11:20:38;;;;;;;3.50;1.80;;;18.90;38.90;17.80;102394.00;;;;6204282;23;20031;-64
2022/04/17 11:23:49;;;;;;;2.85;1.65;;;18.90;39.00;17.80;102389.00;;;;6185027;23;20199;-63
2022/04/17 11:26:53;;;;;;;3.17;1.55;;;18.90;38.80;17.80;102381.00;;;;6207945;23;20230;-63
2022/04/17 11:29:48;;;;;;;2.45;1.50;;;18.90;38.90;17.80;102373.00;;;;6208856;23;20012;-64
2022/04/17 11:32:34;;;;;;;2.63;1.80;;;18.90;38.60;17.80;102373.00;;;;6206760;23;20020;-63
2022/04/17 11:35:24;;;;;;;2.63;1.48;;;18.90;38.80;17.80;102370.00;;;;6205991;23;20017;-64
2022/04/17 11:38:10;;;;;;;1.77;1.40;;;19.00;38.70;17.80;102359.00;;;;6188169;23;20071;-64
2022/04/17 11:40:57;;;;;;;5.32;2.20;;;18.90;38.60;17.80;102362.00;;;;6207987;23;20020;-64
2022/04/17 11:43:59;;;;;;;4.85;1.75;;;18.90;37.40;17.80;102363.00;;;;6186827;23;20083;-63
2022/04/17 11:46:45;;;;;;;6.20;2.50;;;18.90;38.20;17.80;102360.00;;;;6185459;23;20067;-64
2022/04/17 11:49:32;;;;;;;3.53;1.48;;;18.90;37.90;17.80;102355.00;;;;6206949;23;20015;-64
2022/04/17 11:52:20;;;;;;;5.72;1.52;;;19.00;38.10;17.80;102348.00;;;;6208501;23;20017;-64
2022/04/17 11:55:07;;;;;;;;;;;18.90;38.20;17.80;102342.00;;;;6206395;23;20021;-63
2022/04/17 11:57:53;;;;;;;2.85;1.27;;;19.00;38.50;17.80;102345.00;;;;6209587;23;19907;-63
2022/04/17 12:00:39;;;;;;;6.95;1.98;;;19.00;38.40;17.80;102336.00;;;;6206930;23;20076;-63
2022/04/17 12:03:36;;;;;;;4.50;1.52;;;19.00;38.50;17.90;102333.00;;;;6208273;23;20082;-63
2022/04/17 12:06:27;;;;;;;2.40;1.33;;;19.00;38.40;17.80;102329.00;;;;6206087;23;20350;-64
2022/04/17 12:09:13;;;;;;;1.75;1.50;;;18.90;39.10;17.90;102330.00;;;;6208761;23;20450;-64
2022/04/17 12:11:59;;;;;;;2.38;1.20;;;19.10;38.50;17.90;102327.00;;;;6166350;23;20017;-63
2022/04/17 12:14:46;;;;;;;2.80;1.30;;;19.00;38.30;17.90;102327.00;;;;6207489;23;20032;-65
2022/04/17 12:17:34;;;;;;;4.32;1.30;;;19.10;38.50;17.90;102320.00;;;;6205839;23;20324;-63
2022/04/17 12:20:20;;;;;;;3.83;1.20;;;19.10;38.50;17.90;102305.00;;;;6184685;23;20020;-64
2022/04/17 12:23:06;;;;;;;4.35;1.30;;;19.00;38.40;17.90;102310.00;;;;6208887;23;20024;-64
2022/04/17 12:25:53;;;;;;;3.33;1.73;;;19.10;38.40;17.90;102303.00;;;;6208866;23;20020;-64
2022/04/17 12:28:39;;;;;;;4.95;1.10;;;19.10;38.40;18.00;102302.00;;;;6205404;23;20051;-64
2022/04/17 12:31:25;;;;;;;2.47;1.30;;;19.10;38.30;18.00;102309.00;;;;6206065;23;20098;-64
2022/04/17 12:34:22;;;;;;;2.22;1.38;;;19.20;38.30;18.00;102300.00;;;;6187521;23;20012;-64
2022/04/17 12:37:40;;;;;;;4.03;1.35;;;19.20;38.30;18.00;102298.00;;;;6188351;23;20016;-64
2022/04/17 12:40:26;;;;;;;3.17;1.20;;;19.20;38.30;18.00;102294.00;;;;6149966;23;20545;-63